sensor_id;sensor_type;location;lat;lon;timestamp;pressure;altitude;pressure_sealevel;temperature;humidity
1694;BME280;71975;47.068;15.408;2023-08-06T00:04:06;96215.13;;;17.75;100.00
1694;BME280;71975;47.068;15.408;2023-08-06T00:09:09;96209.16;;;17.76;100.00
1694;BME280;71975;47.068;15.408;2023-08-06T00:14:12;96203.94;;;17.78;100.00
1694;BME280;71975;47.068;15.408;2023-08-06T00:19:18;96211.25;;;17.87;100.00
1694;BME280;71975;47.068;15.408;2023-08-06T00:24:21;96217.75;;;17.89;100.00
1694;BME280;71975;47.068;15.408;2023-08-06T00:29:23;96226.66;;;17.84;100.00
1694;BME280;71975;47.068;15.408;2023-08-06T00:34:28;96223.31;;;17.75;100.00
1694;BME280;71975;47.068;15.408;2023-08-06T00:39:31;96216.94;;;17.63;100.00
1694;BME280;71975;47.068;15.408;2023-08-06T00:44:34;96221.09;;;17.53;100.00
1694;BME280;71975;47.068;15.408;2023-08-06T00:49:38;96214.00;;;17.47;100.00
1694;BME280;71975;47.068;15.408;2023-08-06T00:54:41;96211.91;;;17.36;100.00
1694;BME280;71975;47.068;15.408;2023-08-06T00:59:45;96211.13;;;17.36;100.00
1694;BME280;71975;47.068;15.408;2023-08-06T01:04:49;96203.47;;;17.40;100.00
1694;BME280;71975;47.068;15.408;2023-08-06T01:09:58;96198.56;;;17.44;100.00
1694;BME280;71975;47.068;15.408;2023-08-06T01:15:15;96195.16;;;17.49;100.00
1694;BME280;71975;47.068;15.408;2023-08-06T01:20:21;96181.66;;;17.45;100.00
1694;BME280;71975;47.068;15.408;2023-08-06T01:25:30;96180.38;;;17.41;100.00
1694;BME280;71975;47.068;15.408;2023-08-06T01:30:37;96173.09;;;17.38;100.00
1694;BME280;71975;47.068;15.408;2023-08-06T01:35:42;96169.16;;;17.39;100.00
1694;BME280;71975;47.068;15.408;2023-08-06T01:40:47;96168.84;;;17.37;100.00
1694;BME280;71975;47.068;15.408;2023-08-06T01:45:50;96164.09;;;17.32;100.00
1694;BME280;71975;47.068;15.408;2023-08-06T01:50:52;96175.72;;;17.27;100.00
1694;BME280;71975;47.068;15.408;2023-08-06T01:55:57;96166.94;;;17.22;100.00
1694;BME280;71975;47.068;15.408;2023-08-06T02:01:01;96144.53;;;17.18;100.00
1694;BME280;71975;47.068;15.408;2023-08-06T02:06:04;96151.53;;;17.19;100.00
1694;BME280;71975;47.068;15.408;2023-08-06T02:11:08;96156.44;;;17.15;100.00
1694;BME280;71975;47.068;15.408;2023-08-06T02:16:11;96151.91;;;17.12;100.00
1694;BME280;71975;47.068;15.408;2023-08-06T02:21:14;96139.97;;;17.10;100.00
1694;BME280;71975;47.068;15.408;2023-08-06T02:26:18;96132.47;;;17.05;100.00
1694;BME280;71975;47.068;15.408;2023-08-06T02:31:21;96144.41;;;17.07;100.00
1694;BME280;71975;47.068;15.408;2023-08-06T02:36:24;96139.91;;;17.04;100.00
1694;BME280;71975;47.068;15.408;2023-08-06T02:41:32;96124.44;;;17.01;100.00
1694;BME280;71975;47.068;15.408;2023-08-06T02:46:35;96134.84;;;16.97;100.00
1694;BME280;71975;47.068;15.408;2023-08-06T02:51:37;96142.56;;;16.99;100.00
1694;BME280;71975;47.068;15.408;2023-08-06T02:56:44;96153.72;;;16.95;100.00
1694;BME280;71975;47.068;15.408;2023-08-06T03:01:47;96149.66;;;16.91;100.00
1694;BME280;71975;47.068;15.408;2023-08-06T03:06:51;96147.41;;;16.89;100.00
1694;BME280;71975;47.068;15.408;2023-08-06T03:11:55;96146.88;;;16.85;100.00
1694;BME280;71975;47.068;15.408;2023-08-06T03:16:58;96145.06;;;16.82;100.00
1694;BME280;71975;47.068;15.408;2023-08-06T03:22:01;96150.53;;;16.82;100.00
1694;BME280;71975;47.068;15.408;2023-08-06T03:27:05;96146.38;;;16.87;100.00
1694;BME280;71975;47.068;15.408;2023-08-06T03:32:08;96143.28;;;16.79;100.00
1694;BME280;71975;47.068;15.408;2023-08-06T03:37:11;96134.94;;;16.68;100.00
1694;BME280;71975;47.068;15.408;2023-08-06T03:42:15;96136.25;;;16.73;100.00
1694;BME280;71975;47.068;15.408;2023-08-06T03:47:18;96143.03;;;16.77;100.00
1694;BME280;71975;47.068;15.408;2023-08-06T03:52:21;96134.47;;;16.70;100.00
1694;BME280;71975;47.068;15.408;2023-08-06T03:57:25;96129.09;;;16.75;100.00
1694;BME280;71975;47.068;15.408;2023-08-06T04:02:28;96120.41;;;16.77;100.00
1694;BME280;71975;47.068;15.408;2023-08-06T04:07:31;96115.41;;;16.75;100.00
1694;BME280;71975;47.068;15.408;2023-08-06T04:12:35;96117.47;;;16.80;100.00
1694;BME280;71975;47.068;15.408;2023-08-06T04:17:40;96126.97;;;16.85;100.00
1694;BME280;71975;47.068;15.408;2023-08-06T04:22:44;96118.59;;;16.74;100.00
1694;BME280;71975;47.068;15.408;2023-08-06T04:27:48;96120.63;;;16.73;100.00
1694;BME280;71975;47.068;15.408;2023-08-06T04:32:51;96116.63;;;16.74;100.00
1694;BME280;71975;47.068;15.408;2023-08-06T04:37:54;96118.59;;;16.74;100.00
1694;BME280;71975;47.068;15.408;2023-08-06T04:42:58;96129.84;;;16.76;100.00
1694;BME280;71975;47.068;15.408;2023-08-06T04:48:02;96136.59;;;16.80;100.00
1694;BME280;71975;47.068;15.408;2023-08-06T04:53:05;96151.50;;;16.79;100.00
1694;BME280;71975;47.068;15.408;2023-08-06T04:58:10;96165.56;;;16.72;100.00
1694;BME280;71975;47.068;15.408;2023-08-06T05:03:13;96171.88;;;16.78;100.00
1694;BME280;71975;47.068;15.408;2023-08-06T05:08:16;96189.59;;;16.68;100.00
1694;BME280;71975;47.068;15.408;2023-08-06T05:13:20;96189.03;;;16.64;100.00
1694;BME280;71975;47.068;15.408;2023-08-06T05:18:23;96195.47;;;16.61;100.00
1694;BME280;71975;47.068;15.408;2023-08-06T05:23:26;96192.59;;;16.70;100.00
1694;BME280;71975;47.068;15.408;2023-08-06T05:28:30;96193.81;;;16.69;100.00
1694;BME280;71975;47.068;15.408;2023-08-06T05:33:33;96200.91;;;16.76;100.00
1694;BME280;71975;47.068;15.408;2023-08-06T05:38:36;96194.47;;;16.79;100.00
1694;BME280;71975;47.068;15.408;2023-08-06T05:43:40;96189.47;;;16.77;100.00
1694;BME280;71975;47.068;15.408;2023-08-06T05:48:43;96191.44;;;16.77;100.00
1694;BME280;71975;47.068;15.408;2023-08-06T05:53:46;96189.78;;;16.99;100.00
1694;BME280;71975;47.068;15.408;2023-08-06T05:58:52;96191.22;;;16.95;100.00
1694;BME280;71975;47.068;15.408;2023-08-06T06:03:55;96204.69;;;16.98;100.00
1694;BME280;71975;47.068;15.408;2023-08-06T06:08:58;96211.25;;;17.06;100.00
1694;BME280;71975;47.068;15.408;2023-08-06T06:14:02;96214.06;;;17.32;100.00
1694;BME280;71975;47.068;15.408;2023-08-06T06:19:05;96212.41;;;17.20;100.00
1694;BME280;71975;47.068;15.408;2023-08-06T06:24:08;96213.53;;;17.28;100.00
1694;BME280;71975;47.068;15.408;2023-08-06T06:29:12;96206.16;;;17.34;100.00
1694;BME280;71975;47.068;15.408;2023-08-06T06:34:15;96211.31;;;17.32;100.00
1694;BME280;71975;47.068;15.408;2023-08-06T06:39:18;96214.16;;;17.38;100.00
1694;BME280;71975;47.068;15.408;2023-08-06T06:44:22;96220.84;;;17.37;100.00
1694;BME280;71975;47.068;15.408;2023-08-06T06:49:25;96222.69;;;17.45;100.00
1694;BME280;71975;47.068;15.408;2023-08-06T06:54:28;96222.50;;;17.49;100.00
1694;BME280;71975;47.068;15.408;2023-08-06T06:59:32;96224.09;;;17.55;100.00
1694;BME280;71975;47.068;15.408;2023-08-06T07:04:35;96220.59;;;17.55;100.00
1694;BME280;71975;47.068;15.408;2023-08-06T07:09:38;96226.41;;;17.62;100.00
1694;BME280;71975;47.068;15.408;2023-08-06T07:14:42;96218.28;;;17.68;100.00
1694;BME280;71975;47.068;15.408;2023-08-06T07:19:45;96218.72;;;17.66;100.00
1694;BME280;71975;47.068;15.408;2023-08-06T07:24:48;96213.06;;;17.70;100.00
1694;BME280;71975;47.068;15.408;2023-08-06T07:29:52;96208.47;;;17.81;100.00
1694;BME280;71975;47.068;15.408;2023-08-06T07:34:55;96202.97;;;17.81;100.00
1694;BME280;71975;47.068;15.408;2023-08-06T07:40:02;96207.97;;;17.83;100.00
1694;BME280;71975;47.068;15.408;2023-08-06T07:45:09;96197.56;;;17.87;100.00
1694;BME280;71975;47.068;15.408;2023-08-06T07:50:12;96191.69;;;18.00;100.00
1694;BME280;71975;47.068;15.408;2023-08-06T07:55:15;96192.09;;;18.13;100.00
1694;BME280;71975;47.068;15.408;2023-08-06T08:00:20;96182.50;;;17.97;100.00
1694;BME280;71975;47.068;15.408;2023-08-06T08:05:23;96186.53;;;18.07;100.00
1694;BME280;71975;47.068;15.408;2023-08-06T08:10:26;96181.19;;;18.18;100.00
1694;BME280;71975;47.068;15.408;2023-08-06T08:15:30;96184.47;;;17.97;100.00
1694;BME280;71975;47.068;15.408;2023-08-06T08:20:34;96197.13;;;18.20;100.00
1694;BME280;71975;47.068;15.408;2023-08-06T08:25:37;96192.41;;;18.20;100.00
1694;BME280;71975;47.068;15.408;2023-08-06T08:30:41;96199.91;;;18.25;100.00
1694;BME280;71975;47.068;15.408;2023-08-06T08:35:45;96215.91;;;18.32;100.00
1694;BME280;71975;47.068;15.408;2023-08-06T08:40:51;96212.22;;;18.35;100.00
1694;BME280;71975;47.068;15.408;2023-08-06T08:45:58;96221.19;;;18.36;100.00
1694;BME280;71975;47.068;15.408;2023-08-06T08:51:02;96217.34;;;18.53;100.00
1694;BME280;71975;47.068;15.408;2023-08-06T08:56:05;96215.16;;;18.58;100.00
1694;BME280;71975;47.068;15.408;2023-08-06T09:01:10;96224.94;;;18.64;100.00
1694;BME280;71975;47.068;15.408;2023-08-06T09:06:13;96223.97;;;18.73;100.00
1694;BME280;71975;47.068;15.408;2023-08-06T09:11:18;96230.28;;;18.79;100.00
1694;BME280;71975;47.068;15.408;2023-08-06T09:16:24;96229.38;;;18.93;100.00
1694;BME280;71975;47.068;15.408;2023-08-06T09:21:28;96238.25;;;18.77;100.00
1694;BME280;71975;47.068;15.408;2023-08-06T09:26:33;96240.44;;;18.73;100.00
1694;BME280;71975;47.068;15.408;2023-08-06T09:31:41;96245.19;;;18.78;100.00
1694;BME280;71975;47.068;15.408;2023-08-06T09:36:46;96248.75;;;18.84;100.00
1694;BME280;71975;47.068;15.408;2023-08-06T09:41:55;96258.06;;;18.97;100.00
1694;BME280;71975;47.068;15.408;2023-08-06T09:47:01;96249.69;;;19.12;100.00
1694;BME280;71975;47.068;15.408;2023-08-06T09:52:05;96258.72;;;19.23;100.00
1694;BME280;71975;47.068;15.408;2023-08-06T09:57:08;96257.38;;;19.50;100.00
1694;BME280;71975;47.068;15.408;2023-08-06T10:02:13;96261.97;;;19.70;100.00
1694;BME280;71975;47.068;15.408;2023-08-06T10:07:17;96265.72;;;19.72;100.00
1694;BME280;71975;47.068;15.408;2023-08-06T10:12:21;96269.69;;;20.25;100.00
1694;BME280;71975;47.068;15.408;2023-08-06T10:17:28;96272.72;;;21.04;100.00
1694;BME280;71975;47.068;15.408;2023-08-06T10:22:45;96267.53;;;21.86;96.81
1694;BME280;71975;47.068;15.408;2023-08-06T10:27:54;96271.63;;;22.20;91.11
1694;BME280;71975;47.068;15.408;2023-08-06T10:33:00;96275.66;;;22.55;86.78
1694;BME280;71975;47.068;15.408;2023-08-06T10:38:04;96276.44;;;23.15;78.14
1694;BME280;71975;47.068;15.408;2023-08-06T10:43:08;96274.28;;;23.32;74.66
1694;BME280;71975;47.068;15.408;2023-08-06T10:48:28;96273.19;;;23.40;70.32
1694;BME280;71975;47.068;15.408;2023-08-06T10:53:31;96272.50;;;24.01;68.35
1694;BME280;71975;47.068;15.408;2023-08-06T10:58:35;96271.09;;;24.32;66.20
1694;BME280;71975;47.068;15.408;2023-08-06T11:03:40;96274.53;;;24.38;63.00
1694;BME280;71975;47.068;15.408;2023-08-06T11:08:47;96271.69;;;24.25;64.28
1694;BME280;71975;47.068;15.408;2023-08-06T11:13:51;96267.91;;;24.78;59.54
1694;BME280;71975;47.068;15.408;2023-08-06T11:18:57;96270.81;;;25.44;55.54
1694;BME280;71975;47.068;15.408;2023-08-06T11:24:01;96277.88;;;25.45;52.20
1694;BME280;71975;47.068;15.408;2023-08-06T11:29:04;96274.38;;;25.57;52.21
1694;BME280;71975;47.068;15.408;2023-08-06T11:34:09;96268.03;;;26.09;48.89
1694;BME280;71975;47.068;15.408;2023-08-06T11:39:13;96259.03;;;27.25;43.00
1694;BME280;71975;47.068;15.408;2023-08-06T11:44:19;96254.84;;;28.39;41.49
1694;BME280;71975;47.068;15.408;2023-08-06T11:49:41;96250.19;;;28.34;39.96
1694;BME280;71975;47.068;15.408;2023-08-06T11:54:47;96261.28;;;28.19;38.87
1694;BME280;71975;47.068;15.408;2023-08-06T11:59:51;96262.16;;;28.06;38.68
1694;BME280;71975;47.068;15.408;2023-08-06T12:05:02;96257.88;;;27.21;40.74
1694;BME280;71975;47.068;15.408;2023-08-06T12:10:07;96262.19;;;26.80;43.25
1694;BME280;71975;47.068;15.408;2023-08-06T12:15:11;96266.69;;;26.50;43.84
1694;BME280;71975;47.068;15.408;2023-08-06T12:20:16;96257.97;;;26.32;44.12
1694;BME280;71975;47.068;15.408;2023-08-06T12:25:18;96250.88;;;26.78;43.07
1694;BME280;71975;47.068;15.408;2023-08-06T12:30:21;96271.69;;;26.72;41.72
1694;BME280;71975;47.068;15.408;2023-08-06T12:35:26;96267.41;;;26.16;37.21
1694;BME280;71975;47.068;15.408;2023-08-06T12:40:28;96277.25;;;25.78;38.48
1694;BME280;71975;47.068;15.408;2023-08-06T12:45:39;96284.41;;;25.74;40.08
1694;BME280;71975;47.068;15.408;2023-08-06T12:50:44;96287.16;;;25.74;40.78
1694;BME280;71975;47.068;15.408;2023-08-06T12:55:47;96294.28;;;25.82;39.58
1694;BME280;71975;47.068;15.408;2023-08-06T13:00:50;96285.75;;;25.41;39.44
1694;BME280;71975;47.068;15.408;2023-08-06T13:05:57;96282.47;;;25.82;38.57
1694;BME280;71975;47.068;15.408;2023-08-06T13:11:02;96286.00;;;25.69;37.64
1694;BME280;71975;47.068;15.408;2023-08-06T13:16:08;96296.22;;;25.61;39.33
1694;BME280;71975;47.068;15.408;2023-08-06T13:21:15;96290.69;;;25.48;37.35
1694;BME280;71975;47.068;15.408;2023-08-06T13:26:20;96289.13;;;25.34;37.86
1694;BME280;71975;47.068;15.408;2023-08-06T13:31:26;96279.75;;;25.24;38.78
1694;BME280;71975;47.068;15.408;2023-08-06T13:36:33;96282.91;;;25.15;37.80
1694;BME280;71975;47.068;15.408;2023-08-06T13:41:41;96281.25;;;24.80;37.83
1694;BME280;71975;47.068;15.408;2023-08-06T13:46:46;96282.69;;;24.99;38.38
1694;BME280;71975;47.068;15.408;2023-08-06T13:51:53;96278.38;;;24.85;38.26
1694;BME280;71975;47.068;15.408;2023-08-06T13:57:13;96290.75;;;24.97;38.75
1694;BME280;71975;47.068;15.408;2023-08-06T14:02:20;96289.28;;;25.10;37.81
1694;BME280;71975;47.068;15.408;2023-08-06T14:07:27;96292.47;;;25.00;38.05
1694;BME280;71975;47.068;15.408;2023-08-06T14:12:32;96289.50;;;24.98;38.53
1694;BME280;71975;47.068;15.408;2023-08-06T14:17:38;96296.91;;;24.90;37.81
1694;BME280;71975;47.068;15.408;2023-08-06T14:22:44;96303.22;;;24.72;38.32
1694;BME280;71975;47.068;15.408;2023-08-06T14:27:50;96293.50;;;24.84;37.95
1694;BME280;71975;47.068;15.408;2023-08-06T14:32:56;96300.56;;;24.98;38.24
1694;BME280;71975;47.068;15.408;2023-08-06T14:38:24;96302.50;;;25.03;38.15
1694;BME280;71975;47.068;15.408;2023-08-06T14:43:29;96305.31;;;25.17;38.07
1694;BME280;71975;47.068;15.408;2023-08-06T14:48:36;96305.50;;;25.05;37.46
1694;BME280;71975;47.068;15.408;2023-08-06T14:53:45;96307.69;;;24.94;36.84
1694;BME280;71975;47.068;15.408;2023-08-06T14:58:50;96302.84;;;24.81;35.10
1694;BME280;71975;47.068;15.408;2023-08-06T15:03:56;96310.25;;;24.73;36.21
1694;BME280;71975;47.068;15.408;2023-08-06T15:09:04;96310.88;;;24.48;36.98
1694;BME280;71975;47.068;15.408;2023-08-06T15:14:11;96331.94;;;24.32;36.11
1694;BME280;71975;47.068;15.408;2023-08-06T15:19:20;96330.47;;;24.31;35.72
1694;BME280;71975;47.068;15.408;2023-08-06T15:24:28;96330.59;;;24.20;35.38
1694;BME280;71975;47.068;15.408;2023-08-06T15:29:42;96337.06;;;24.04;35.91
1694;BME280;71975;47.068;15.408;2023-08-06T15:34:48;96342.16;;;24.00;35.74
1694;BME280;71975;47.068;15.408;2023-08-06T15:39:55;96340.63;;;23.99;35.45
1694;BME280;71975;47.068;15.408;2023-08-06T15:45:01;96351.44;;;23.78;36.08
1694;BME280;71975;47.068;15.408;2023-08-06T15:50:07;96366.69;;;23.60;35.88
1694;BME280;71975;47.068;15.408;2023-08-06T15:55:15;96364.56;;;23.42;36.25
1694;BME280;71975;47.068;15.408;2023-08-06T16:00:20;96361.75;;;23.77;39.40
1694;BME280;71975;47.068;15.408;2023-08-06T16:05:26;96373.81;;;23.74;37.25
1694;BME280;71975;47.068;15.408;2023-08-06T16:10:33;96372.78;;;23.77;36.97
1694;BME280;71975;47.068;15.408;2023-08-06T16:15:38;96374.22;;;23.60;39.55
1694;BME280;71975;47.068;15.408;2023-08-06T16:20:44;96377.50;;;23.58;38.89
1694;BME280;71975;47.068;15.408;2023-08-06T16:25:51;96374.69;;;23.34;38.97
1694;BME280;71975;47.068;15.408;2023-08-06T16:30:57;96383.22;;;23.36;39.74
1694;BME280;71975;47.068;15.408;2023-08-06T16:36:03;96366.53;;;23.47;39.94
1694;BME280;71975;47.068;15.408;2023-08-06T16:41:10;96391.25;;;23.40;40.57
1694;BME280;71975;47.068;15.408;2023-08-06T16:46:16;96401.25;;;23.43;40.17
1694;BME280;71975;47.068;15.408;2023-08-06T16:51:21;96408.78;;;23.42;38.42
1694;BME280;71975;47.068;15.408;2023-08-06T16:56:28;96407.94;;;23.53;37.09
1694;BME280;71975;47.068;15.408;2023-08-06T17:01:34;96414.84;;;23.35;38.46
1694;BME280;71975;47.068;15.408;2023-08-06T17:06:42;96429.06;;;23.15;38.16
1694;BME280;71975;47.068;15.408;2023-08-06T17:11:49;96435.38;;;23.10;39.57
1694;BME280;71975;47.068;15.408;2023-08-06T17:16:55;96440.50;;;22.89;39.58
1694;BME280;71975;47.068;15.408;2023-08-06T17:22:00;96449.09;;;22.80;39.98
1694;BME280;71975;47.068;15.408;2023-08-06T17:27:07;96444.59;;;22.77;37.75
1694;BME280;71975;47.068;15.408;2023-08-06T17:32:13;96441.34;;;22.79;38.34
1694;BME280;71975;47.068;15.408;2023-08-06T17:37:18;96450.34;;;22.79;38.65
1694;BME280;71975;47.068;15.408;2023-08-06T17:42:25;96456.69;;;22.63;38.38
1694;BME280;71975;47.068;15.408;2023-08-06T17:47:30;96472.75;;;22.65;39.77
1694;BME280;71975;47.068;15.408;2023-08-06T17:52:40;96467.72;;;22.69;40.16
1694;BME280;71975;47.068;15.408;2023-08-06T17:57:47;96490.53;;;22.58;40.70
1694;BME280;71975;47.068;15.408;2023-08-06T18:02:54;96500.63;;;22.50;40.87
1694;BME280;71975;47.068;15.408;2023-08-06T18:07:59;96505.16;;;22.36;40.15
1694;BME280;71975;47.068;15.408;2023-08-06T18:13:06;96503.94;;;22.15;39.90
1694;BME280;71975;47.068;15.408;2023-08-06T18:18:12;96510.50;;;22.01;39.32
1694;BME280;71975;47.068;15.408;2023-08-06T18:23:17;96518.00;;;21.95;39.13
1694;BME280;71975;47.068;15.408;2023-08-06T18:28:25;96520.22;;;21.80;39.25
1694;BME280;71975;47.068;15.408;2023-08-06T18:33:30;96526.75;;;21.77;39.14
1694;BME280;71975;47.068;15.408;2023-08-06T18:38:35;96530.75;;;21.59;40.26
1694;BME280;71975;47.068;15.408;2023-08-06T18:43:43;96538.03;;;21.62;40.69
1694;BME280;71975;47.068;15.408;2023-08-06T18:48:49;96537.75;;;21.49;42.20
1694;BME280;71975;47.068;15.408;2023-08-06T18:53:55;96546.22;;;21.35;40.60
1694;BME280;71975;47.068;15.408;2023-08-06T18:59:03;96537.72;;;21.33;41.17
1694;BME280;71975;47.068;15.408;2023-08-06T19:04:10;96542.50;;;21.38;41.61
1694;BME280;71975;47.068;15.408;2023-08-06T19:09:16;96545.78;;;21.53;40.96
1694;BME280;71975;47.068;15.408;2023-08-06T19:14:23;96546.03;;;21.71;40.12
1694;BME280;71975;47.068;15.408;2023-08-06T19:19:30;96549.78;;;21.52;39.98
1694;BME280;71975;47.068;15.408;2023-08-06T19:24:37;96562.00;;;21.34;40.36
1694;BME280;71975;47.068;15.408;2023-08-06T19:29:52;96572.22;;;21.23;40.60
1694;BME280;71975;47.068;15.408;2023-08-06T19:34:59;96564.94;;;21.08;39.78
1694;BME280;71975;47.068;15.408;2023-08-06T19:40:06;96568.63;;;20.94;40.33
1694;BME280;71975;47.068;15.408;2023-08-06T19:45:21;96580.09;;;20.87;41.00
1694;BME280;71975;47.068;15.408;2023-08-06T19:50:27;96586.06;;;20.80;41.25
1694;BME280;71975;47.068;15.408;2023-08-06T19:55:36;96582.00;;;20.70;42.54
1694;BME280;71975;47.068;15.408;2023-08-06T20:00:44;96573.88;;;20.50;43.33
1694;BME280;71975;47.068;15.408;2023-08-06T20:05:50;96578.88;;;20.46;42.66
1694;BME280;71975;47.068;15.408;2023-08-06T20:10:56;96588.34;;;20.45;42.75
1694;BME280;71975;47.068;15.408;2023-08-06T20:16:04;96575.31;;;20.34;43.07
1694;BME280;71975;47.068;15.408;2023-08-06T20:21:12;96587.22;;;20.26;43.01
1694;BME280;71975;47.068;15.408;2023-08-06T20:26:17;96586.31;;;20.09;44.43
1694;BME280;71975;47.068;15.408;2023-08-06T20:31:24;96590.94;;;19.92;45.87
1694;BME280;71975;47.068;15.408;2023-08-06T20:36:29;96602.69;;;19.66;48.46
1694;BME280;71975;47.068;15.408;2023-08-06T20:41:35;96603.53;;;19.52;50.17
1694;BME280;71975;47.068;15.408;2023-08-06T20:46:41;96615.38;;;19.38;51.71
1694;BME280;71975;47.068;15.408;2023-08-06T20:51:45;96620.25;;;19.08;54.37
1694;BME280;71975;47.068;15.408;2023-08-06T20:56:49;96623.34;;;18.96;55.88
1694;BME280;71975;47.068;15.408;2023-08-06T21:01:54;96626.59;;;18.80;57.75
1694;BME280;71975;47.068;15.408;2023-08-06T21:06:57;96623.03;;;18.74;58.21
1694;BME280;71975;47.068;15.408;2023-08-06T21:12:00;96615.09;;;18.76;54.28
1694;BME280;71975;47.068;15.408;2023-08-06T21:17:05;96604.13;;;18.76;53.27
1694;BME280;71975;47.068;15.408;2023-08-06T21:22:08;96614.66;;;18.63;55.68
1694;BME280;71975;47.068;15.408;2023-08-06T21:27:11;96629.38;;;18.30;56.85
1694;BME280;71975;47.068;15.408;2023-08-06T21:32:16;96637.09;;;18.32;57.87
1694;BME280;71975;47.068;15.408;2023-08-06T21:37:18;96637.38;;;18.34;57.42
1694;BME280;71975;47.068;15.408;2023-08-06T21:42:21;96647.63;;;18.19;58.56
1694;BME280;71975;47.068;15.408;2023-08-06T21:47:25;96639.59;;;18.15;58.87
1694;BME280;71975;47.068;15.408;2023-08-06T21:52:28;96654.44;;;18.09;59.54
1694;BME280;71975;47.068;15.408;2023-08-06T21:57:31;96652.53;;;18.00;61.58
1694;BME280;71975;47.068;15.408;2023-08-06T22:02:35;96655.66;;;18.08;60.54
1694;BME280;71975;47.068;15.408;2023-08-06T22:07:38;96656.56;;;17.90;62.34
1694;BME280;71975;47.068;15.408;2023-08-06T22:12:41;96645.94;;;17.92;61.86
1694;BME280;71975;47.068;15.408;2023-08-06T22:17:45;96667.25;;;17.73;60.26
1694;BME280;71975;47.068;15.408;2023-08-06T22:22:49;96660.34;;;17.78;61.11
1694;BME280;71975;47.068;15.408;2023-08-06T22:27:53;96663.28;;;17.74;60.90
1694;BME280;71975;47.068;15.408;2023-08-06T22:32:57;96663.41;;;17.80;62.94
1694;BME280;71975;47.068;15.408;2023-08-06T22:38:00;96662.25;;;17.72;63.54
1694;BME280;71975;47.068;15.408;2023-08-06T22:43:04;96667.53;;;17.61;64.09
1694;BME280;71975;47.068;15.408;2023-08-06T22:48:08;96666.66;;;17.55;65.00
1694;BME280;71975;47.068;15.408;2023-08-06T22:53:11;96668.41;;;17.43;65.74
1694;BME280;71975;47.068;15.408;2023-08-06T22:58:14;96674.03;;;17.40;66.63
1694;BME280;71975;47.068;15.408;2023-08-06T23:03:18;96692.38;;;17.24;67.91
1694;BME280;71975;47.068;15.408;2023-08-06T23:08:21;96677.28;;;17.14;68.44
1694;BME280;71975;47.068;15.408;2023-08-06T23:13:24;96678.56;;;17.04;67.21
1694;BME280;71975;47.068;15.408;2023-08-06T23:18:28;96695.69;;;16.81;66.38
1694;BME280;71975;47.068;15.408;2023-08-06T23:23:31;96696.44;;;16.82;63.78
1694;BME280;71975;47.068;15.408;2023-08-06T23:28:34;96699.03;;;16.76;66.27
1694;BME280;71975;47.068;15.408;2023-08-06T23:33:38;96689.09;;;16.64;67.40
1694;BME280;71975;47.068;15.408;2023-08-06T23:38:42;96687.28;;;16.61;69.50
1694;BME280;71975;47.068;15.408;2023-08-06T23:43:45;96673.28;;;16.68;71.07
1694;BME280;71975;47.068;15.408;2023-08-06T23:48:49;96681.56;;;16.41;71.52
1694;BME280;71975;47.068;15.408;2023-08-06T23:53:52;96685.84;;;16.33;73.01
1694;BME280;71975;47.068;15.408;2023-08-06T23:58:55;96677.94;;;16.44;72.43
